sensor_id;sensor_type;location;lat;lon;timestamp;P1;durP1;ratioP1;P2;durP2;ratioP2
82159;SDS011;71734;50.876;7.372;2023-08-24T00:00:49;6.43;;;3.30;;
82159;SDS011;71734;50.876;7.372;2023-08-24T00:03:16;7.07;;;3.75;;
82159;SDS011;71734;50.876;7.372;2023-08-24T00:05:45;8.18;;;3.83;;
82159;SDS011;71734;50.876;7.372;2023-08-24T00:08:14;7.72;;;3.70;;
82159;SDS011;71734;50.876;7.372;2023-08-24T00:10:42;6.93;;;3.47;;
82159;SDS011;71734;50.876;7.372;2023-08-24T00:13:09;8.93;;;3.28;;
82159;SDS011;71734;50.876;7.372;2023-08-24T00:15:36;7.10;;;3.72;;
82159;SDS011;71734;50.876;7.372;2023-08-24T00:18:02;9.27;;;3.85;;
82159;SDS011;71734;50.876;7.372;2023-08-24T00:20:29;7.45;;;3.50;;
82159;SDS011;71734;50.876;7.372;2023-08-24T00:22:57;7.07;;;3.40;;
82159;SDS011;71734;50.876;7.372;2023-08-24T00:25:24;8.23;;;3.65;;
82159;SDS011;71734;50.876;7.372;2023-08-24T00:27:52;7.53;;;3.40;;
82159;SDS011;71734;50.876;7.372;2023-08-24T00:30:19;5.95;;;3.47;;
82159;SDS011;71734;50.876;7.372;2023-08-24T00:32:45;6.63;;;3.05;;
82159;SDS011;71734;50.876;7.372;2023-08-24T00:35:12;8.20;;;3.42;;
82159;SDS011;71734;50.876;7.372;2023-08-24T00:37:39;7.38;;;3.60;;
82159;SDS011;71734;50.876;7.372;2023-08-24T00:40:07;6.35;;;3.22;;
82159;SDS011;71734;50.876;7.372;2023-08-24T00:42:36;8.45;;;3.70;;
82159;SDS011;71734;50.876;7.372;2023-08-24T00:45:07;7.57;;;3.50;;
82159;SDS011;71734;50.876;7.372;2023-08-24T00:47:35;8.30;;;3.80;;
82159;SDS011;71734;50.876;7.372;2023-08-24T00:50:02;6.82;;;3.28;;
82159;SDS011;71734;50.876;7.372;2023-08-24T00:52:31;6.72;;;3.65;;
82159;SDS011;71734;50.876;7.372;2023-08-24T00:54:59;8.02;;;3.47;;
82159;SDS011;71734;50.876;7.372;2023-08-24T00:57:26;8.48;;;3.65;;
82159;SDS011;71734;50.876;7.372;2023-08-24T00:59:53;7.30;;;3.85;;
82159;SDS011;71734;50.876;7.372;2023-08-24T01:02:22;7.57;;;3.78;;
82159;SDS011;71734;50.876;7.372;2023-08-24T01:04:48;8.07;;;4.28;;
82159;SDS011;71734;50.876;7.372;2023-08-24T01:07:15;6.00;;;3.10;;
82159;SDS011;71734;50.876;7.372;2023-08-24T01:09:43;8.23;;;3.40;;
82159;SDS011;71734;50.876;7.372;2023-08-24T01:12:12;7.13;;;3.60;;
82159;SDS011;71734;50.876;7.372;2023-08-24T01:14:47;6.65;;;3.90;;
82159;SDS011;71734;50.876;7.372;2023-08-24T01:17:22;6.38;;;3.35;;
82159;SDS011;71734;50.876;7.372;2023-08-24T01:19:52;7.90;;;3.40;;
82159;SDS011;71734;50.876;7.372;2023-08-24T01:22:23;8.23;;;3.45;;
82159;SDS011;71734;50.876;7.372;2023-08-24T01:25:00;6.35;;;3.15;;
82159;SDS011;71734;50.876;7.372;2023-08-24T01:27:34;6.65;;;3.40;;
82159;SDS011;71734;50.876;7.372;2023-08-24T01:30:02;8.35;;;3.92;;
82159;SDS011;71734;50.876;7.372;2023-08-24T01:32:30;7.82;;;4.05;;
82159;SDS011;71734;50.876;7.372;2023-08-24T01:34:58;7.03;;;3.33;;
82159;SDS011;71734;50.876;7.372;2023-08-24T01:37:24;7.85;;;4.13;;
82159;SDS011;71734;50.876;7.372;2023-08-24T01:39:54;7.10;;;3.88;;
82159;SDS011;71734;50.876;7.372;2023-08-24T01:42:30;7.70;;;3.38;;
82159;SDS011;71734;50.876;7.372;2023-08-24T01:45:03;7.07;;;3.67;;
82159;SDS011;71734;50.876;7.372;2023-08-24T01:47:33;6.55;;;3.03;;
82159;SDS011;71734;50.876;7.372;2023-08-24T01:50:01;8.73;;;3.55;;
82159;SDS011;71734;50.876;7.372;2023-08-24T01:52:28;8.05;;;3.35;;
82159;SDS011;71734;50.876;7.372;2023-08-24T01:54:56;6.88;;;3.45;;
82159;SDS011;71734;50.876;7.372;2023-08-24T01:57:22;8.00;;;3.83;;
82159;SDS011;71734;50.876;7.372;2023-08-24T01:59:49;7.78;;;3.22;;
82159;SDS011;71734;50.876;7.372;2023-08-24T02:02:17;5.90;;;2.75;;
82159;SDS011;71734;50.876;7.372;2023-08-24T02:04:43;6.30;;;2.90;;
82159;SDS011;71734;50.876;7.372;2023-08-24T02:07:10;11.23;;;3.30;;
82159;SDS011;71734;50.876;7.372;2023-08-24T02:09:36;8.18;;;3.45;;
82159;SDS011;71734;50.876;7.372;2023-08-24T02:12:03;8.00;;;3.67;;
82159;SDS011;71734;50.876;7.372;2023-08-24T02:14:30;8.77;;;3.63;;
82159;SDS011;71734;50.876;7.372;2023-08-24T02:16:56;8.65;;;3.75;;
82159;SDS011;71734;50.876;7.372;2023-08-24T02:19:25;6.20;;;3.78;;
82159;SDS011;71734;50.876;7.372;2023-08-24T02:21:51;6.82;;;3.33;;
82159;SDS011;71734;50.876;7.372;2023-08-24T02:24:17;7.32;;;3.25;;
82159;SDS011;71734;50.876;7.372;2023-08-24T02:26:44;7.40;;;3.33;;
82159;SDS011;71734;50.876;7.372;2023-08-24T02:29:11;7.22;;;3.60;;
82159;SDS011;71734;50.876;7.372;2023-08-24T02:31:37;7.13;;;3.15;;
82159;SDS011;71734;50.876;7.372;2023-08-24T02:34:04;6.63;;;3.33;;
82159;SDS011;71734;50.876;7.372;2023-08-24T02:36:32;7.25;;;3.42;;
82159;SDS011;71734;50.876;7.372;2023-08-24T02:38:59;7.97;;;3.50;;
82159;SDS011;71734;50.876;7.372;2023-08-24T02:41:25;6.00;;;3.40;;
82159;SDS011;71734;50.876;7.372;2023-08-24T02:43:52;7.53;;;3.45;;
82159;SDS011;71734;50.876;7.372;2023-08-24T02:46:20;6.72;;;3.33;;
82159;SDS011;71734;50.876;7.372;2023-08-24T02:48:47;7.03;;;3.85;;
82159;SDS011;71734;50.876;7.372;2023-08-24T02:51:13;9.05;;;3.97;;
82159;SDS011;71734;50.876;7.372;2023-08-24T02:53:41;6.82;;;3.60;;
82159;SDS011;71734;50.876;7.372;2023-08-24T02:56:08;10.00;;;4.53;;
82159;SDS011;71734;50.876;7.372;2023-08-24T02:58:34;6.28;;;3.65;;
82159;SDS011;71734;50.876;7.372;2023-08-24T03:01:04;6.85;;;3.60;;
82159;SDS011;71734;50.876;7.372;2023-08-24T03:03:31;8.18;;;3.47;;
82159;SDS011;71734;50.876;7.372;2023-08-24T03:05:58;8.57;;;3.65;;
82159;SDS011;71734;50.876;7.372;2023-08-24T03:08:28;6.70;;;3.17;;
82159;SDS011;71734;50.876;7.372;2023-08-24T03:10:57;6.78;;;3.65;;
82159;SDS011;71734;50.876;7.372;2023-08-24T03:13:24;8.18;;;3.45;;
82159;SDS011;71734;50.876;7.372;2023-08-24T03:15:51;6.22;;;3.20;;
82159;SDS011;71734;50.876;7.372;2023-08-24T03:18:18;5.88;;;2.85;;
82159;SDS011;71734;50.876;7.372;2023-08-24T03:20:45;6.32;;;3.33;;
82159;SDS011;71734;50.876;7.372;2023-08-24T03:23:13;6.82;;;3.28;;
82159;SDS011;71734;50.876;7.372;2023-08-24T03:25:40;9.48;;;4.00;;
82159;SDS011;71734;50.876;7.372;2023-08-24T03:28:09;7.50;;;3.33;;
82159;SDS011;71734;50.876;7.372;2023-08-24T03:30:37;6.68;;;3.58;;
82159;SDS011;71734;50.876;7.372;2023-08-24T03:33:05;7.28;;;3.95;;
82159;SDS011;71734;50.876;7.372;2023-08-24T03:35:32;7.10;;;3.25;;
82159;SDS011;71734;50.876;7.372;2023-08-24T03:37:59;9.65;;;4.15;;
82159;SDS011;71734;50.876;7.372;2023-08-24T03:40:26;6.65;;;3.30;;
82159;SDS011;71734;50.876;7.372;2023-08-24T03:42:53;7.20;;;3.85;;
82159;SDS011;71734;50.876;7.372;2023-08-24T03:45:21;7.40;;;3.50;;
82159;SDS011;71734;50.876;7.372;2023-08-24T03:47:49;7.40;;;4.05;;
82159;SDS011;71734;50.876;7.372;2023-08-24T03:50:16;6.65;;;4.03;;
82159;SDS011;71734;50.876;7.372;2023-08-24T03:52:42;6.75;;;3.70;;
82159;SDS011;71734;50.876;7.372;2023-08-24T03:55:09;6.40;;;3.60;;
82159;SDS011;71734;50.876;7.372;2023-08-24T03:57:35;9.85;;;3.78;;
82159;SDS011;71734;50.876;7.372;2023-08-24T04:00:03;8.48;;;4.07;;
82159;SDS011;71734;50.876;7.372;2023-08-24T04:02:33;6.82;;;3.85;;
82159;SDS011;71734;50.876;7.372;2023-08-24T04:04:59;9.77;;;4.13;;
82159;SDS011;71734;50.876;7.372;2023-08-24T04:07:27;7.72;;;3.70;;
82159;SDS011;71734;50.876;7.372;2023-08-24T04:09:54;7.82;;;4.20;;
82159;SDS011;71734;50.876;7.372;2023-08-24T04:12:20;7.97;;;3.83;;
82159;SDS011;71734;50.876;7.372;2023-08-24T04:14:47;9.43;;;4.10;;
82159;SDS011;71734;50.876;7.372;2023-08-24T04:17:14;7.40;;;3.47;;
82159;SDS011;71734;50.876;7.372;2023-08-24T04:19:41;8.60;;;4.22;;
82159;SDS011;71734;50.876;7.372;2023-08-24T04:22:08;6.80;;;3.42;;
82159;SDS011;71734;50.876;7.372;2023-08-24T04:24:34;7.70;;;3.65;;
82159;SDS011;71734;50.876;7.372;2023-08-24T04:27:01;6.88;;;3.30;;
82159;SDS011;71734;50.876;7.372;2023-08-24T04:29:27;8.45;;;3.92;;
82159;SDS011;71734;50.876;7.372;2023-08-24T04:31:54;9.60;;;3.80;;
82159;SDS011;71734;50.876;7.372;2023-08-24T04:34:20;10.02;;;4.32;;
82159;SDS011;71734;50.876;7.372;2023-08-24T04:36:48;7.75;;;3.85;;
82159;SDS011;71734;50.876;7.372;2023-08-24T04:39:15;6.55;;;3.78;;
82159;SDS011;71734;50.876;7.372;2023-08-24T04:41:43;6.10;;;3.40;;
82159;SDS011;71734;50.876;7.372;2023-08-24T04:44:10;6.50;;;3.53;;
82159;SDS011;71734;50.876;7.372;2023-08-24T04:46:36;7.55;;;3.97;;
82159;SDS011;71734;50.876;7.372;2023-08-24T04:49:05;9.88;;;4.05;;
82159;SDS011;71734;50.876;7.372;2023-08-24T04:51:32;8.57;;;3.95;;
82159;SDS011;71734;50.876;7.372;2023-08-24T04:54:00;10.25;;;4.07;;
82159;SDS011;71734;50.876;7.372;2023-08-24T04:56:27;7.75;;;4.00;;
82159;SDS011;71734;50.876;7.372;2023-08-24T04:58:54;6.85;;;3.90;;
82159;SDS011;71734;50.876;7.372;2023-08-24T05:01:24;6.72;;;3.78;;
82159;SDS011;71734;50.876;7.372;2023-08-24T05:03:51;7.93;;;4.05;;
82159;SDS011;71734;50.876;7.372;2023-08-24T05:06:18;7.03;;;3.10;;
82159;SDS011;71734;50.876;7.372;2023-08-24T05:08:45;7.20;;;3.60;;
82159;SDS011;71734;50.876;7.372;2023-08-24T05:11:14;8.80;;;4.80;;
82159;SDS011;71734;50.876;7.372;2023-08-24T05:13:42;6.38;;;3.75;;
82159;SDS011;71734;50.876;7.372;2023-08-24T05:16:09;8.75;;;4.00;;
82159;SDS011;71734;50.876;7.372;2023-08-24T05:18:36;7.50;;;4.10;;
82159;SDS011;71734;50.876;7.372;2023-08-24T05:21:03;7.65;;;4.20;;
82159;SDS011;71734;50.876;7.372;2023-08-24T05:23:33;7.10;;;4.20;;
82159;SDS011;71734;50.876;7.372;2023-08-24T05:26:00;6.88;;;4.03;;
82159;SDS011;71734;50.876;7.372;2023-08-24T05:28:29;9.40;;;4.53;;
82159;SDS011;71734;50.876;7.372;2023-08-24T05:30:57;7.43;;;4.00;;
82159;SDS011;71734;50.876;7.372;2023-08-24T05:33:24;8.80;;;4.88;;
82159;SDS011;71734;50.876;7.372;2023-08-24T05:35:52;7.95;;;4.45;;
82159;SDS011;71734;50.876;7.372;2023-08-24T05:38:19;15.45;;;5.10;;
82159;SDS011;71734;50.876;7.372;2023-08-24T05:40:46;7.90;;;4.38;;
82159;SDS011;71734;50.876;7.372;2023-08-24T05:43:14;7.90;;;4.85;;
82159;SDS011;71734;50.876;7.372;2023-08-24T05:45:42;9.68;;;4.82;;
82159;SDS011;71734;50.876;7.372;2023-08-24T05:48:10;8.80;;;5.03;;
82159;SDS011;71734;50.876;7.372;2023-08-24T05:50:36;7.88;;;4.53;;
82159;SDS011;71734;50.876;7.372;2023-08-24T05:53:03;9.57;;;4.57;;
82159;SDS011;71734;50.876;7.372;2023-08-24T05:55:30;9.13;;;5.88;;
82159;SDS011;71734;50.876;7.372;2023-08-24T05:57:57;8.35;;;4.85;;
82159;SDS011;71734;50.876;7.372;2023-08-24T06:00:23;10.07;;;5.50;;
82159;SDS011;71734;50.876;7.372;2023-08-24T06:02:51;9.65;;;4.70;;
82159;SDS011;71734;50.876;7.372;2023-08-24T06:05:18;8.00;;;4.40;;
82159;SDS011;71734;50.876;7.372;2023-08-24T06:07:44;7.68;;;4.70;;
82159;SDS011;71734;50.876;7.372;2023-08-24T06:10:11;10.93;;;5.20;;
82159;SDS011;71734;50.876;7.372;2023-08-24T06:12:38;8.48;;;5.80;;
82159;SDS011;71734;50.876;7.372;2023-08-24T06:15:05;9.50;;;5.18;;
82159;SDS011;71734;50.876;7.372;2023-08-24T06:17:34;9.02;;;5.38;;
82159;SDS011;71734;50.876;7.372;2023-08-24T06:20:03;9.77;;;5.35;;
82159;SDS011;71734;50.876;7.372;2023-08-24T06:22:30;7.90;;;4.85;;
82159;SDS011;71734;50.876;7.372;2023-08-24T06:24:59;7.38;;;4.28;;
82159;SDS011;71734;50.876;7.372;2023-08-24T06:27:26;8.25;;;5.38;;
82159;SDS011;71734;50.876;7.372;2023-08-24T06:29:53;8.23;;;4.75;;
82159;SDS011;71734;50.876;7.372;2023-08-24T06:32:20;8.15;;;4.65;;
82159;SDS011;71734;50.876;7.372;2023-08-24T06:34:50;11.52;;;5.00;;
82159;SDS011;71734;50.876;7.372;2023-08-24T06:37:18;10.10;;;5.03;;
82159;SDS011;71734;50.876;7.372;2023-08-24T06:39:44;7.97;;;4.90;;
82159;SDS011;71734;50.876;7.372;2023-08-24T06:42:11;7.45;;;4.82;;
82159;SDS011;71734;50.876;7.372;2023-08-24T06:44:37;7.35;;;5.25;;
82159;SDS011;71734;50.876;7.372;2023-08-24T06:47:04;7.68;;;4.88;;
82159;SDS011;71734;50.876;7.372;2023-08-24T06:49:32;9.25;;;4.93;;
82159;SDS011;71734;50.876;7.372;2023-08-24T06:51:59;7.55;;;5.15;;
82159;SDS011;71734;50.876;7.372;2023-08-24T06:54:27;10.95;;;5.15;;
82159;SDS011;71734;50.876;7.372;2023-08-24T06:57:01;8.85;;;5.18;;
82159;SDS011;71734;50.876;7.372;2023-08-24T06:59:28;8.77;;;5.00;;
82159;SDS011;71734;50.876;7.372;2023-08-24T07:01:58;8.05;;;4.90;;
82159;SDS011;71734;50.876;7.372;2023-08-24T07:04:24;8.63;;;5.38;;
82159;SDS011;71734;50.876;7.372;2023-08-24T07:06:51;8.13;;;5.18;;
82159;SDS011;71734;50.876;7.372;2023-08-24T07:09:21;9.02;;;5.38;;
82159;SDS011;71734;50.876;7.372;2023-08-24T07:11:49;7.93;;;5.40;;
82159;SDS011;71734;50.876;7.372;2023-08-24T07:14:15;9.60;;;4.90;;
82159;SDS011;71734;50.876;7.372;2023-08-24T07:16:53;9.20;;;5.25;;
82159;SDS011;71734;50.876;7.372;2023-08-24T07:19:21;9.55;;;4.45;;
82159;SDS011;71734;50.876;7.372;2023-08-24T07:21:48;8.55;;;4.95;;
82159;SDS011;71734;50.876;7.372;2023-08-24T07:24:15;7.15;;;4.88;;
82159;SDS011;71734;50.876;7.372;2023-08-24T07:26:47;9.05;;;4.70;;
82159;SDS011;71734;50.876;7.372;2023-08-24T07:29:15;7.95;;;4.35;;
82159;SDS011;71734;50.876;7.372;2023-08-24T07:31:41;8.55;;;4.82;;
82159;SDS011;71734;50.876;7.372;2023-08-24T07:34:10;7.38;;;4.10;;
82159;SDS011;71734;50.876;7.372;2023-08-24T07:36:36;8.73;;;4.60;;
82159;SDS011;71734;50.876;7.372;2023-08-24T07:39:04;8.05;;;4.47;;
82159;SDS011;71734;50.876;7.372;2023-08-24T07:41:32;6.97;;;4.10;;
82159;SDS011;71734;50.876;7.372;2023-08-24T07:44:00;7.30;;;4.47;;
82159;SDS011;71734;50.876;7.372;2023-08-24T07:46:27;9.05;;;4.80;;
82159;SDS011;71734;50.876;7.372;2023-08-24T07:48:55;7.63;;;4.40;;
82159;SDS011;71734;50.876;7.372;2023-08-24T07:51:25;7.40;;;4.00;;
82159;SDS011;71734;50.876;7.372;2023-08-24T07:53:51;7.40;;;3.92;;
82159;SDS011;71734;50.876;7.372;2023-08-24T07:56:21;7.00;;;4.00;;
82159;SDS011;71734;50.876;7.372;2023-08-24T07:58:48;6.25;;;3.70;;
82159;SDS011;71734;50.876;7.372;2023-08-24T08:01:16;7.07;;;3.65;;
82159;SDS011;71734;50.876;7.372;2023-08-24T08:03:44;7.18;;;3.70;;
82159;SDS011;71734;50.876;7.372;2023-08-24T08:06:10;6.50;;;3.97;;
82159;SDS011;71734;50.876;7.372;2023-08-24T08:08:38;6.90;;;3.50;;
82159;SDS011;71734;50.876;7.372;2023-08-24T08:11:15;9.38;;;3.88;;
82159;SDS011;71734;50.876;7.372;2023-08-24T08:13:47;6.63;;;3.50;;
82159;SDS011;71734;50.876;7.372;2023-08-24T08:16:16;7.07;;;3.10;;
82159;SDS011;71734;50.876;7.372;2023-08-24T08:18:42;7.05;;;3.58;;
82159;SDS011;71734;50.876;7.372;2023-08-24T08:21:15;6.88;;;3.60;;
82159;SDS011;71734;50.876;7.372;2023-08-24T08:23:44;6.75;;;4.07;;
82159;SDS011;71734;50.876;7.372;2023-08-24T08:26:21;7.22;;;3.70;;
82159;SDS011;71734;50.876;7.372;2023-08-24T08:28:49;6.95;;;3.83;;
82159;SDS011;71734;50.876;7.372;2023-08-24T08:31:18;8.65;;;4.05;;
82159;SDS011;71734;50.876;7.372;2023-08-24T08:33:45;7.57;;;3.40;;
82159;SDS011;71734;50.876;7.372;2023-08-24T08:36:11;6.63;;;4.72;;
82159;SDS011;71734;50.876;7.372;2023-08-24T08:38:38;7.55;;;3.28;;
82159;SDS011;71734;50.876;7.372;2023-08-24T08:41:04;6.78;;;3.90;;
82159;SDS011;71734;50.876;7.372;2023-08-24T08:43:31;6.55;;;3.25;;
82159;SDS011;71734;50.876;7.372;2023-08-24T08:46:00;7.30;;;3.53;;
82159;SDS011;71734;50.876;7.372;2023-08-24T08:48:28;6.43;;;3.42;;
82159;SDS011;71734;50.876;7.372;2023-08-24T08:50:57;7.25;;;3.45;;
82159;SDS011;71734;50.876;7.372;2023-08-24T08:53:26;7.88;;;3.67;;
82159;SDS011;71734;50.876;7.372;2023-08-24T08:55:54;6.28;;;3.60;;
82159;SDS011;71734;50.876;7.372;2023-08-24T08:58:25;6.40;;;3.65;;
82159;SDS011;71734;50.876;7.372;2023-08-24T09:00:53;6.10;;;3.53;;
82159;SDS011;71734;50.876;7.372;2023-08-24T09:03:21;6.55;;;3.40;;
82159;SDS011;71734;50.876;7.372;2023-08-24T09:05:53;6.15;;;3.17;;
82159;SDS011;71734;50.876;7.372;2023-08-24T09:08:19;6.38;;;3.03;;
82159;SDS011;71734;50.876;7.372;2023-08-24T09:10:46;6.53;;;3.63;;
82159;SDS011;71734;50.876;7.372;2023-08-24T09:13:15;7.43;;;3.80;;
82159;SDS011;71734;50.876;7.372;2023-08-24T09:15:43;6.80;;;3.50;;
82159;SDS011;71734;50.876;7.372;2023-08-24T09:18:15;7.53;;;3.95;;
82159;SDS011;71734;50.876;7.372;2023-08-24T09:20:42;5.43;;;3.40;;
82159;SDS011;71734;50.876;7.372;2023-08-24T09:23:18;6.97;;;3.65;;
82159;SDS011;71734;50.876;7.372;2023-08-24T09:25:45;6.93;;;3.80;;
82159;SDS011;71734;50.876;7.372;2023-08-24T09:28:21;6.05;;;3.40;;
82159;SDS011;71734;50.876;7.372;2023-08-24T09:30:51;6.40;;;3.85;;
82159;SDS011;71734;50.876;7.372;2023-08-24T09:33:23;6.05;;;3.60;;
82159;SDS011;71734;50.876;7.372;2023-08-24T09:35:52;8.07;;;3.75;;
82159;SDS011;71734;50.876;7.372;2023-08-24T09:38:32;6.45;;;3.40;;
82159;SDS011;71734;50.876;7.372;2023-08-24T09:41:03;6.57;;;3.60;;
82159;SDS011;71734;50.876;7.372;2023-08-24T09:45:57;6.60;;;3.60;;
82159;SDS011;71734;50.876;7.372;2023-08-24T09:48:25;6.72;;;3.50;;
82159;SDS011;71734;50.876;7.372;2023-08-24T09:50:52;8.45;;;3.53;;
82159;SDS011;71734;50.876;7.372;2023-08-24T09:53:19;6.55;;;3.40;;
82159;SDS011;71734;50.876;7.372;2023-08-24T09:55:53;6.30;;;3.58;;
82159;SDS011;71734;50.876;7.372;2023-08-24T09:58:21;7.72;;;3.33;;
82159;SDS011;71734;50.876;7.372;2023-08-24T10:00:51;7.00;;;3.67;;
82159;SDS011;71734;50.876;7.372;2023-08-24T10:03:18;7.38;;;3.70;;
82159;SDS011;71734;50.876;7.372;2023-08-24T10:05:53;5.97;;;3.70;;
82159;SDS011;71734;50.876;7.372;2023-08-24T10:08:26;6.93;;;3.00;;
82159;SDS011;71734;50.876;7.372;2023-08-24T10:10:58;7.70;;;3.83;;
82159;SDS011;71734;50.876;7.372;2023-08-24T10:13:28;5.95;;;2.95;;
82159;SDS011;71734;50.876;7.372;2023-08-24T10:16:02;6.03;;;3.25;;
82159;SDS011;71734;50.876;7.372;2023-08-24T10:18:31;7.20;;;3.70;;
82159;SDS011;71734;50.876;7.372;2023-08-24T10:21:04;6.80;;;3.40;;
82159;SDS011;71734;50.876;7.372;2023-08-24T10:23:32;6.68;;;3.28;;
82159;SDS011;71734;50.876;7.372;2023-08-24T10:26:04;5.65;;;2.90;;
82159;SDS011;71734;50.876;7.372;2023-08-24T10:28:33;6.30;;;2.85;;
82159;SDS011;71734;50.876;7.372;2023-08-24T10:31:05;6.00;;;2.72;;
82159;SDS011;71734;50.876;7.372;2023-08-24T10:33:33;7.85;;;3.00;;
82159;SDS011;71734;50.876;7.372;2023-08-24T10:36:05;6.38;;;3.60;;
82159;SDS011;71734;50.876;7.372;2023-08-24T10:38:34;6.25;;;3.00;;
82159;SDS011;71734;50.876;7.372;2023-08-24T10:41:07;6.57;;;3.22;;
82159;SDS011;71734;50.876;7.372;2023-08-24T10:43:36;7.13;;;3.30;;
82159;SDS011;71734;50.876;7.372;2023-08-24T10:46:15;6.45;;;3.08;;
82159;SDS011;71734;50.876;7.372;2023-08-24T10:53:53;6.03;;;2.88;;
82159;SDS011;71734;50.876;7.372;2023-08-24T10:59:15;6.97;;;3.25;;
82159;SDS011;71734;50.876;7.372;2023-08-24T11:01:48;6.22;;;2.92;;
82159;SDS011;71734;50.876;7.372;2023-08-24T11:04:23;5.95;;;3.10;;
82159;SDS011;71734;50.876;7.372;2023-08-24T11:06:51;7.18;;;2.75;;
82159;SDS011;71734;50.876;7.372;2023-08-24T11:09:19;6.70;;;2.90;;
82159;SDS011;71734;50.876;7.372;2023-08-24T11:12:00;6.72;;;2.60;;
82159;SDS011;71734;50.876;7.372;2023-08-24T11:14:30;5.47;;;2.70;;
82159;SDS011;71734;50.876;7.372;2023-08-24T11:17:17;6.68;;;2.70;;
82159;SDS011;71734;50.876;7.372;2023-08-24T11:19:52;6.55;;;2.40;;
82159;SDS011;71734;50.876;7.372;2023-08-24T11:22:24;5.25;;;2.45;;
82159;SDS011;71734;50.876;7.372;2023-08-24T11:24:52;5.72;;;2.70;;
82159;SDS011;71734;50.876;7.372;2023-08-24T11:27:29;5.70;;;2.90;;
82159;SDS011;71734;50.876;7.372;2023-08-24T11:30:00;6.15;;;2.80;;
82159;SDS011;71734;50.876;7.372;2023-08-24T11:32:36;5.75;;;2.65;;
82159;SDS011;71734;50.876;7.372;2023-08-24T11:35:10;5.43;;;2.40;;
82159;SDS011;71734;50.876;7.372;2023-08-24T11:37:37;5.78;;;2.70;;
82159;SDS011;71734;50.876;7.372;2023-08-24T11:40:04;6.78;;;3.25;;
82159;SDS011;71734;50.876;7.372;2023-08-24T11:42:38;6.45;;;2.60;;
82159;SDS011;71734;50.876;7.372;2023-08-24T11:45:13;8.00;;;3.45;;
82159;SDS011;71734;50.876;7.372;2023-08-24T11:47:39;6.45;;;2.67;;
82159;SDS011;71734;50.876;7.372;2023-08-24T11:50:07;6.45;;;3.08;;
82159;SDS011;71734;50.876;7.372;2023-08-24T11:52:38;6.05;;;3.33;;
82159;SDS011;71734;50.876;7.372;2023-08-24T11:55:05;6.10;;;3.25;;
82159;SDS011;71734;50.876;7.372;2023-08-24T11:57:39;7.10;;;2.90;;
82159;SDS011;71734;50.876;7.372;2023-08-24T12:00:08;5.13;;;2.70;;
82159;SDS011;71734;50.876;7.372;2023-08-24T12:02:40;5.95;;;3.05;;
82159;SDS011;71734;50.876;7.372;2023-08-24T12:05:07;5.75;;;2.80;;
82159;SDS011;71734;50.876;7.372;2023-08-24T12:07:34;10.05;;;3.70;;
82159;SDS011;71734;50.876;7.372;2023-08-24T12:10:06;6.68;;;3.10;;
82159;SDS011;71734;50.876;7.372;2023-08-24T12:12:34;6.35;;;3.20;;
82159;SDS011;71734;50.876;7.372;2023-08-24T12:15:02;6.65;;;3.83;;
82159;SDS011;71734;50.876;7.372;2023-08-24T12:17:29;6.50;;;3.35;;
82159;SDS011;71734;50.876;7.372;2023-08-24T12:19:57;7.40;;;3.40;;
82159;SDS011;71734;50.876;7.372;2023-08-24T12:22:26;6.00;;;3.50;;
82159;SDS011;71734;50.876;7.372;2023-08-24T12:24:53;7.40;;;3.63;;
82159;SDS011;71734;50.876;7.372;2023-08-24T12:27:20;6.80;;;3.88;;
82159;SDS011;71734;50.876;7.372;2023-08-24T12:29:48;7.88;;;3.72;;
82159;SDS011;71734;50.876;7.372;2023-08-24T12:32:16;6.28;;;3.35;;
82159;SDS011;71734;50.876;7.372;2023-08-24T12:34:45;8.23;;;4.68;;
82159;SDS011;71734;50.876;7.372;2023-08-24T12:37:22;7.38;;;3.75;;
82159;SDS011;71734;50.876;7.372;2023-08-24T12:39:50;6.53;;;3.70;;
82159;SDS011;71734;50.876;7.372;2023-08-24T12:42:23;7.28;;;3.33;;
82159;SDS011;71734;50.876;7.372;2023-08-24T12:44:50;6.93;;;3.80;;
82159;SDS011;71734;50.876;7.372;2023-08-24T12:47:21;6.57;;;3.88;;
82159;SDS011;71734;50.876;7.372;2023-08-24T12:49:48;7.95;;;3.85;;
82159;SDS011;71734;50.876;7.372;2023-08-24T12:52:21;7.15;;;3.67;;
82159;SDS011;71734;50.876;7.372;2023-08-24T12:54:48;7.45;;;3.67;;
82159;SDS011;71734;50.876;7.372;2023-08-24T12:57:15;6.85;;;3.80;;
82159;SDS011;71734;50.876;7.372;2023-08-24T12:59:42;6.38;;;3.25;;
82159;SDS011;71734;50.876;7.372;2023-08-24T13:02:08;6.75;;;3.55;;
82159;SDS011;71734;50.876;7.372;2023-08-24T13:04:36;7.90;;;3.45;;
82159;SDS011;71734;50.876;7.372;2023-08-24T13:07:05;7.45;;;3.30;;
82159;SDS011;71734;50.876;7.372;2023-08-24T13:09:32;8.23;;;3.78;;
82159;SDS011;71734;50.876;7.372;2023-08-24T13:11:58;6.88;;;3.35;;
82159;SDS011;71734;50.876;7.372;2023-08-24T13:14:31;7.30;;;3.85;;
82159;SDS011;71734;50.876;7.372;2023-08-24T13:16:57;7.32;;;3.50;;
82159;SDS011;71734;50.876;7.372;2023-08-24T13:19:23;7.05;;;3.42;;
82159;SDS011;71734;50.876;7.372;2023-08-24T13:21:54;6.28;;;3.30;;
82159;SDS011;71734;50.876;7.372;2023-08-24T13:24:20;6.38;;;3.67;;
82159;SDS011;71734;50.876;7.372;2023-08-24T13:26:47;8.13;;;3.63;;
82159;SDS011;71734;50.876;7.372;2023-08-24T13:29:14;7.88;;;4.35;;
82159;SDS011;71734;50.876;7.372;2023-08-24T13:31:40;7.43;;;4.07;;
82159;SDS011;71734;50.876;7.372;2023-08-24T13:34:07;8.10;;;3.67;;
82159;SDS011;71734;50.876;7.372;2023-08-24T13:36:36;6.00;;;3.38;;
82159;SDS011;71734;50.876;7.372;2023-08-24T13:39:04;7.90;;;3.78;;
82159;SDS011;71734;50.876;7.372;2023-08-24T13:41:31;6.82;;;3.83;;
82159;SDS011;71734;50.876;7.372;2023-08-24T13:44:02;6.88;;;3.85;;
82159;SDS011;71734;50.876;7.372;2023-08-24T13:46:28;7.43;;;4.20;;
82159;SDS011;71734;50.876;7.372;2023-08-24T13:48:55;7.35;;;3.55;;
82159;SDS011;71734;50.876;7.372;2023-08-24T13:51:32;7.20;;;3.63;;
82159;SDS011;71734;50.876;7.372;2023-08-24T13:53:58;8.30;;;3.60;;
82159;SDS011;71734;50.876;7.372;2023-08-24T13:56:26;7.07;;;3.47;;
82159;SDS011;71734;50.876;7.372;2023-08-24T13:58:55;7.18;;;3.88;;
82159;SDS011;71734;50.876;7.372;2023-08-24T14:04:15;6.28;;;3.47;;
82159;SDS011;71734;50.876;7.372;2023-08-24T14:06:41;7.63;;;3.85;;
82159;SDS011;71734;50.876;7.372;2023-08-24T14:09:08;6.72;;;3.72;;
82159;SDS011;71734;50.876;7.372;2023-08-24T14:11:36;8.85;;;4.28;;
82159;SDS011;71734;50.876;7.372;2023-08-24T14:14:22;7.80;;;4.20;;
82159;SDS011;71734;50.876;7.372;2023-08-24T14:16:54;14.10;;;4.53;;
82159;SDS011;71734;50.876;7.372;2023-08-24T14:19:21;8.52;;;4.68;;
82159;SDS011;71734;50.876;7.372;2023-08-24T14:21:51;8.77;;;5.30;;
82159;SDS011;71734;50.876;7.372;2023-08-24T14:24:21;8.73;;;5.00;;
82159;SDS011;71734;50.876;7.372;2023-08-24T14:26:48;9.18;;;5.72;;
82159;SDS011;71734;50.876;7.372;2023-08-24T14:29:15;9.55;;;5.07;;
82159;SDS011;71734;50.876;7.372;2023-08-24T14:31:43;8.07;;;5.57;;
82159;SDS011;71734;50.876;7.372;2023-08-24T14:34:09;6.70;;;4.72;;
82159;SDS011;71734;50.876;7.372;2023-08-24T14:36:36;8.38;;;5.43;;
82159;SDS011;71734;50.876;7.372;2023-08-24T14:39:02;11.43;;;4.90;;
82159;SDS011;71734;50.876;7.372;2023-08-24T14:44:33;8.23;;;4.05;;
82159;SDS011;71734;50.876;7.372;2023-08-24T14:47:08;10.48;;;4.60;;
82159;SDS011;71734;50.876;7.372;2023-08-24T14:49:35;7.35;;;4.50;;
82159;SDS011;71734;50.876;7.372;2023-08-24T14:52:09;12.45;;;4.20;;
82159;SDS011;71734;50.876;7.372;2023-08-24T14:54:36;7.53;;;3.90;;
82159;SDS011;71734;50.876;7.372;2023-08-24T14:57:04;12.45;;;4.80;;
82159;SDS011;71734;50.876;7.372;2023-08-24T14:59:33;7.15;;;3.70;;
82159;SDS011;71734;50.876;7.372;2023-08-24T15:02:00;7.93;;;4.40;;
82159;SDS011;71734;50.876;7.372;2023-08-24T15:04:27;7.85;;;4.15;;
82159;SDS011;71734;50.876;7.372;2023-08-24T15:06:59;6.47;;;4.10;;
82159;SDS011;71734;50.876;7.372;2023-08-24T15:09:26;7.70;;;3.90;;
82159;SDS011;71734;50.876;7.372;2023-08-24T15:11:57;8.43;;;4.00;;